createdAt,value
2023-03-08T00:02:10.083Z,5.10
2023-03-08T00:04:40.213Z,5.30
2023-03-08T00:07:13.077Z,4.50
2023-03-08T00:09:43.171Z,5.00
2023-03-08T00:12:14.047Z,4.77
2023-03-08T00:14:44.458Z,4.10
2023-03-08T00:17:15.400Z,4.37
2023-03-08T00:19:46.228Z,3.90
2023-03-08T00:22:18.965Z,3.87
2023-03-08T00:24:49.337Z,4.17
2023-03-08T00:27:25.568Z,4.00
2023-03-08T00:29:55.661Z,4.20
2023-03-08T00:32:28.971Z,3.63
2023-03-08T00:34:59.206Z,4.03
2023-03-08T00:37:32.130Z,4.53
2023-03-08T00:40:02.264Z,4.07
2023-03-08T00:42:32.422Z,4.47
2023-03-08T00:45:02.530Z,3.83
2023-03-08T00:47:32.755Z,4.33
2023-03-08T00:50:03.041Z,4.73
2023-03-08T00:52:36.084Z,4.87
2023-03-08T00:55:06.262Z,4.07
2023-03-08T00:57:36.488Z,4.93
2023-03-08T01:00:12.563Z,4.50
2023-03-08T01:02:43.070Z,4.43
2023-03-08T01:05:13.716Z,4.80
2023-03-08T01:07:46.581Z,4.80
2023-03-08T01:10:17.292Z,4.33
2023-03-08T01:12:49.946Z,4.53
2023-03-08T01:15:20.405Z,4.30
2023-03-08T01:17:50.558Z,3.97
2023-03-08T01:20:23.881Z,3.27
2023-03-08T01:22:57.932Z,3.53
2023-03-08T01:25:28.326Z,3.53
2023-03-08T01:27:58.583Z,4.07
2023-03-08T01:30:28.954Z,3.90
2023-03-08T01:32:59.176Z,4.30
2023-03-08T01:35:29.339Z,4.17
2023-03-08T01:38:04.954Z,4.17
2023-03-08T01:40:35.557Z,4.10
2023-03-08T01:43:25.663Z,4.33
2023-03-08T01:46:20.374Z,4.20
2023-03-08T01:48:56.631Z,3.97
2023-03-08T01:51:37.626Z,3.90
2023-03-08T01:54:17.623Z,3.97
2023-03-08T01:56:52.386Z,4.17
2023-03-08T01:59:25.900Z,4.10
2023-03-08T02:01:56.476Z,3.83
2023-03-08T02:04:26.785Z,3.77
2023-03-08T02:06:56.933Z,3.73
2023-03-08T02:09:32.510Z,3.87
2023-03-08T02:12:08.967Z,3.20
2023-03-08T02:14:39.709Z,4.00
2023-03-08T02:17:09.989Z,3.93
2023-03-08T02:19:53.093Z,4.10
2023-03-08T02:22:24.861Z,3.40
2023-03-08T02:24:57.623Z,3.93
2023-03-08T02:27:31.226Z,3.97
2023-03-08T02:30:03.661Z,3.87
2023-03-08T02:32:33.722Z,3.63
2023-03-08T02:35:04.823Z,3.63
2023-03-08T02:37:36.052Z,3.63
2023-03-08T02:40:14.393Z,3.77
2023-03-08T02:42:44.562Z,3.27
2023-03-08T02:45:15.121Z,3.67
2023-03-08T02:47:45.276Z,3.77
2023-03-08T02:50:15.775Z,4.00
2023-03-08T02:52:45.889Z,3.97
2023-03-08T02:55:18.865Z,4.50
2023-03-08T02:57:48.959Z,4.00
2023-03-08T03:00:20.794Z,4.57
2023-03-08T03:02:51.807Z,4.20
2023-03-08T03:05:22.193Z,3.97
2023-03-08T03:07:58.722Z,4.17
2023-03-08T03:10:31.529Z,4.67
2023-03-08T03:13:01.632Z,4.83
2023-03-08T03:15:31.904Z,4.83
2023-03-08T03:18:02.525Z,4.67
2023-03-08T03:20:32.682Z,5.43
2023-03-08T03:23:03.257Z,5.40
2023-03-08T03:25:39.850Z,5.30
2023-03-08T03:28:12.727Z,4.83
2023-03-08T03:30:43.402Z,5.53
2023-03-08T03:33:13.521Z,5.47
2023-03-08T03:35:43.721Z,5.70
2023-03-08T03:38:13.846Z,6.20
2023-03-08T03:40:46.627Z,5.90
2023-03-08T03:43:18.903Z,6.20
2023-03-08T03:45:59.074Z,5.77
2023-03-08T03:48:30.011Z,6.07
2023-03-08T03:51:02.925Z,5.97
2023-03-08T03:53:37.347Z,5.90
2023-03-08T03:56:17.421Z,6.13
2023-03-08T03:58:49.053Z,5.97
2023-03-08T04:01:25.083Z,5.27
2023-03-08T04:03:57.735Z,5.13
2023-03-08T04:06:30.483Z,5.53
2023-03-08T04:09:03.833Z,5.57
2023-03-08T04:11:40.915Z,5.00
2023-03-08T04:14:12.739Z,4.63
2023-03-08T04:16:43.167Z,4.57
2023-03-08T04:19:15.981Z,4.93
2023-03-08T04:21:46.272Z,3.97
2023-03-08T04:24:18.886Z,3.80
2023-03-08T04:26:51.703Z,4.10
2023-03-08T04:29:24.377Z,3.50
2023-03-08T04:31:58.233Z,3.90
2023-03-08T04:34:28.642Z,3.83
2023-03-08T04:36:59.012Z,3.53
2023-03-08T04:39:29.373Z,4.13
2023-03-08T04:44:31.238Z,4.23
2023-03-08T04:47:01.356Z,4.53
2023-03-08T04:49:31.640Z,4.73
2023-03-08T04:52:01.794Z,4.57
2023-03-08T04:54:31.979Z,4.63
2023-03-08T04:57:02.122Z,4.33
2023-03-08T04:59:35.060Z,4.60
2023-03-08T05:02:05.901Z,3.90
2023-03-08T05:04:36.127Z,4.53
2023-03-08T05:07:06.468Z,4.30
2023-03-08T05:09:39.137Z,4.13
2023-03-08T05:12:11.401Z,3.90
2023-03-08T05:14:44.108Z,3.33
2023-03-08T05:17:14.327Z,3.93
2023-03-08T05:19:44.474Z,3.50
2023-03-08T05:22:14.610Z,3.37
2023-03-08T05:24:46.262Z,3.37
2023-03-08T05:27:18.564Z,3.30
2023-03-08T05:29:51.259Z,2.87
2023-03-08T05:32:21.528Z,2.80
2023-03-08T05:34:51.681Z,2.90
2023-03-08T05:37:27.363Z,2.70
2023-03-08T05:39:57.662Z,3.03
2023-03-08T05:42:28.313Z,2.73
2023-03-08T05:45:01.032Z,2.60
2023-03-08T05:47:32.264Z,2.00
2023-03-08T05:50:02.365Z,2.50
2023-03-08T05:52:34.676Z,2.20
2023-03-08T05:55:04.917Z,2.33
2023-03-08T05:57:36.503Z,2.60
2023-03-08T06:00:11.876Z,2.37
2023-03-08T06:02:42.143Z,3.33
2023-03-08T06:05:13.055Z,3.63
2023-03-08T06:07:43.897Z,3.77
2023-03-08T06:10:17.237Z,3.90
2023-03-08T06:12:47.419Z,3.87
2023-03-08T06:15:20.518Z,4.67
2023-03-08T06:17:50.647Z,4.17
2023-03-08T06:20:21.158Z,5.83
2023-03-08T06:22:51.387Z,5.83
2023-03-08T06:25:21.538Z,4.13
2023-03-08T06:27:54.653Z,4.37
2023-03-08T06:30:27.441Z,5.03
2023-03-08T06:32:57.796Z,4.60
2023-03-08T06:35:27.926Z,4.63
2023-03-08T06:37:58.150Z,4.60
2023-03-08T06:40:28.411Z,4.87
2023-03-08T06:43:02.170Z,5.53
2023-03-08T06:45:34.857Z,5.20
2023-03-08T06:48:05.018Z,6.23
2023-03-08T06:50:36.818Z,5.10
2023-03-08T06:53:07.040Z,5.40
2023-03-08T06:55:38.589Z,5.93
2023-03-08T06:58:10.173Z,5.97
2023-03-08T07:00:42.998Z,6.20
2023-03-08T07:03:14.955Z,6.50
2023-03-08T07:05:45.731Z,6.30
2023-03-08T07:08:16.048Z,5.70
2023-03-08T07:10:46.274Z,7.17
2023-03-08T07:13:18.037Z,6.20
2023-03-08T07:15:51.029Z,6.83
2023-03-08T07:18:24.039Z,6.80
2023-03-08T07:20:56.676Z,6.33
2023-03-08T07:23:27.058Z,6.70
2023-03-08T07:25:57.125Z,6.40
2023-03-08T07:28:30.150Z,7.20
2023-03-08T07:31:02.893Z,6.43
2023-03-08T07:33:33.096Z,7.27
2023-03-08T07:36:05.858Z,6.60
2023-03-08T07:38:36.170Z,6.13
2023-03-08T07:41:06.551Z,6.63
2023-03-08T07:43:36.690Z,5.53
2023-03-08T07:46:09.629Z,5.60
2023-03-08T07:48:39.858Z,6.40
2023-03-08T07:51:12.388Z,6.00
2023-03-08T07:53:42.669Z,6.17
2023-03-08T07:56:12.782Z,5.77
2023-03-08T07:58:42.924Z,5.53
2023-03-08T08:01:17.122Z,5.43
2023-03-08T08:03:47.305Z,5.30
2023-03-08T08:06:17.493Z,5.10
2023-03-08T08:08:50.429Z,5.03
2023-03-08T08:11:22.599Z,4.83
2023-03-08T08:13:55.164Z,5.07
2023-03-08T08:16:30.418Z,5.27
2023-03-08T08:19:00.810Z,5.07
2023-03-08T08:21:31.258Z,4.50
2023-03-08T08:24:05.518Z,5.27
2023-03-08T08:26:35.688Z,5.47
2023-03-08T08:29:06.074Z,5.17
2023-03-08T08:31:41.458Z,4.97
2023-03-08T08:34:12.047Z,5.00
2023-03-08T08:36:42.183Z,5.73
2023-03-08T08:39:12.348Z,5.43
2023-03-08T08:41:42.520Z,5.60
2023-03-08T08:44:12.684Z,5.80
2023-03-08T08:46:45.458Z,5.30
2023-03-08T08:49:18.456Z,5.43
2023-03-08T08:51:48.565Z,5.40
2023-03-08T08:54:19.144Z,5.37
2023-03-08T08:56:49.282Z,5.23
2023-03-08T08:59:19.484Z,5.33
2023-03-08T09:01:52.200Z,5.43
2023-03-08T09:04:22.562Z,5.67
2023-03-08T09:06:53.519Z,6.53
2023-03-08T09:09:24.019Z,5.90
2023-03-08T09:11:55.856Z,6.00
2023-03-08T09:14:27.087Z,6.13
2023-03-08T09:16:59.844Z,6.07
2023-03-08T09:19:30.116Z,6.53
2023-03-08T09:22:00.285Z,6.60
2023-03-08T09:24:30.497Z,5.93
2023-03-08T09:27:00.670Z,6.50
2023-03-08T09:29:32.995Z,6.23
2023-03-08T09:32:05.945Z,6.10
2023-03-08T09:34:36.387Z,6.87
2023-03-08T09:37:08.769Z,6.10
2023-03-08T09:39:40.650Z,6.40
2023-03-08T09:42:23.498Z,6.90
2023-03-08T09:45:08.834Z,6.50
2023-03-08T09:47:49.974Z,6.80
2023-03-08T09:50:51.869Z,7.23
2023-03-08T09:53:31.297Z,6.97
2023-03-08T09:56:09.426Z,7.17
2023-03-08T09:58:49.733Z,6.70
2023-03-08T10:01:35.399Z,7.50
2023-03-08T10:04:42.514Z,6.73
2023-03-08T10:07:51.079Z,6.30
2023-03-08T10:10:38.043Z,7.67
2023-03-08T10:13:33.340Z,6.83
2023-03-08T10:16:24.270Z,7.33
2023-03-08T10:19:01.326Z,6.93
2023-03-08T10:21:37.574Z,7.53
2023-03-08T10:24:19.388Z,7.10
2023-03-08T10:26:49.678Z,7.90
2023-03-08T10:29:19.813Z,7.93
2023-03-08T10:31:50.450Z,7.53
2023-03-08T10:34:25.344Z,7.27
2023-03-08T10:37:06.485Z,7.27
2023-03-08T10:39:39.839Z,6.80
2023-03-08T10:42:18.931Z,7.53
2023-03-08T10:44:57.360Z,7.20
2023-03-08T10:47:30.903Z,7.43
2023-03-08T10:50:20.006Z,7.43
2023-03-08T10:52:54.212Z,7.67
2023-03-08T10:55:29.850Z,7.80
2023-03-08T10:58:03.692Z,7.00
2023-03-08T11:00:38.560Z,7.00
2023-03-08T11:03:21.857Z,7.53
2023-03-08T11:06:08.888Z,7.27
2023-03-08T11:08:57.824Z,7.03
2023-03-08T11:11:28.507Z,6.77
2023-03-08T11:13:59.208Z,6.53
2023-03-08T11:16:54.523Z,7.27
2023-03-08T11:19:43.387Z,7.13
2023-03-08T11:22:28.886Z,6.50
2023-03-08T11:25:21.914Z,6.80
2023-03-08T11:28:12.645Z,8.07
2023-03-08T11:31:02.161Z,6.43
2023-03-08T11:34:19.054Z,6.77
2023-03-08T11:37:00.202Z,6.93
2023-03-08T11:39:36.463Z,5.87
2023-03-08T11:42:26.888Z,6.23
2023-03-08T11:45:18.499Z,6.50
2023-03-08T11:48:22.303Z,5.60
2023-03-08T11:50:59.600Z,6.43
2023-03-08T11:53:55.545Z,6.10
2023-03-08T11:57:16.446Z,6.70
2023-03-08T11:59:54.530Z,5.78
2023-03-08T12:02:30.419Z,5.35
2023-03-08T12:05:10.695Z,5.03
2023-03-08T12:07:46.212Z,5.00
2023-03-08T12:10:25.682Z,5.33
2023-03-08T12:13:07.717Z,6.97
2023-03-08T12:15:44.892Z,6.97
2023-03-08T12:18:28.723Z,6.60
2023-03-08T12:21:16.295Z,5.20
2023-03-08T12:24:06.409Z,6.38
2023-03-08T12:26:44.664Z,5.32
2023-03-08T12:29:29.005Z,5.28
2023-03-08T12:32:00.071Z,5.47
2023-03-08T12:34:39.524Z,5.43
2023-03-08T12:37:24.355Z,5.72
2023-03-08T12:40:07.985Z,7.10
2023-03-08T12:42:42.731Z,5.70
2023-03-08T12:45:37.585Z,5.67
2023-03-08T12:48:27.330Z,5.20
2023-03-08T12:51:06.006Z,5.73
2023-03-08T12:53:43.505Z,5.13
2023-03-08T12:56:29.699Z,4.50
2023-03-08T12:59:04.704Z,4.50
2023-03-08T13:01:42.727Z,4.73
2023-03-08T13:04:46.956Z,7.70
2023-03-08T13:07:33.563Z,4.70
2023-03-08T13:10:23.582Z,5.40
2023-03-08T13:13:31.124Z,4.80
2023-03-08T13:16:32.558Z,5.00
2023-03-08T13:19:24.428Z,5.60
2023-03-08T13:22:13.139Z,5.40
2023-03-08T13:24:57.907Z,5.80
2023-03-08T13:27:45.719Z,5.27
2023-03-08T13:30:30.870Z,5.13
2023-03-08T13:33:02.094Z,5.70
2023-03-08T13:35:36.923Z,5.37
2023-03-08T13:38:07.310Z,5.17
2023-03-08T13:40:37.802Z,5.20
2023-03-08T13:43:09.884Z,5.27
2023-03-08T13:45:41.698Z,5.50
2023-03-08T13:48:19.300Z,6.23
2023-03-08T13:50:54.788Z,7.20
2023-03-08T13:53:30.020Z,6.57
2023-03-08T13:56:04.510Z,5.50
2023-03-08T13:58:38.207Z,5.13
2023-03-08T14:01:17.410Z,5.33
2023-03-08T14:03:49.206Z,4.83
2023-03-08T14:06:29.873Z,5.27
2023-03-08T14:09:03.472Z,5.23
2023-03-08T14:11:36.670Z,5.40
2023-03-08T14:14:11.314Z,5.33
2023-03-08T14:16:44.852Z,5.23
2023-03-08T14:19:26.441Z,6.23
2023-03-08T14:22:02.895Z,7.00
2023-03-08T14:24:37.218Z,6.57
2023-03-08T14:27:27.020Z,5.93
2023-03-08T14:30:06.868Z,5.83
2023-03-08T14:32:38.696Z,4.97
2023-03-08T14:35:19.547Z,5.53
2023-03-08T14:37:55.983Z,5.63
2023-03-08T14:40:38.119Z,5.90
2023-03-08T14:43:17.419Z,5.97
2023-03-08T14:45:58.021Z,5.73
2023-03-08T14:48:33.207Z,6.33
2023-03-08T14:51:07.597Z,6.10
2023-03-08T14:53:59.211Z,6.70
2023-03-08T14:56:31.068Z,6.10
2023-03-08T14:59:05.513Z,5.40
2023-03-08T15:01:39.453Z,5.27
2023-03-08T15:04:19.679Z,5.17
2023-03-08T15:06:49.606Z,6.20
2023-03-08T15:09:26.761Z,6.67
2023-03-08T15:12:00.970Z,9.23
2023-03-08T15:14:32.269Z,15.13
2023-03-08T15:17:02.469Z,6.63
2023-03-08T15:19:36.180Z,6.33
2023-03-08T15:22:10.879Z,5.93
2023-03-08T15:24:47.173Z,5.70
2023-03-08T15:27:18.850Z,5.43
2023-03-08T15:29:51.561Z,5.50
2023-03-08T15:32:21.751Z,5.80
2023-03-08T15:34:51.846Z,5.80
2023-03-08T15:37:24.005Z,6.50
2023-03-08T15:39:56.676Z,5.70
2023-03-08T15:42:26.861Z,6.37
2023-03-08T15:44:57.012Z,5.83
2023-03-08T15:47:27.191Z,5.93
2023-03-08T15:49:57.570Z,5.53
2023-03-08T15:52:30.410Z,7.13
2023-03-08T15:55:03.563Z,8.43
2023-03-08T15:57:39.560Z,5.93
2023-03-08T16:00:15.793Z,6.07
2023-03-08T16:02:46.828Z,5.70
2023-03-08T16:05:22.122Z,6.03
2023-03-08T16:07:56.779Z,8.57
2023-03-08T16:10:31.495Z,8.00
2023-03-08T16:13:01.683Z,7.57
2023-03-08T16:15:34.013Z,8.00
2023-03-08T16:18:05.278Z,7.30
2023-03-08T16:20:35.430Z,7.20
2023-03-08T16:23:09.334Z,8.20
2023-03-08T16:25:44.093Z,9.43
2023-03-08T16:28:14.363Z,8.90
2023-03-08T16:30:44.672Z,7.77
2023-03-08T16:33:16.776Z,7.57
2023-03-08T16:35:52.378Z,14.80
2023-03-08T16:38:23.370Z,14.77
2023-03-08T16:41:06.208Z,10.90
2023-03-08T16:43:47.201Z,20.97
2023-03-08T16:46:36.582Z,24.70
2023-03-08T16:49:06.743Z,16.50
2023-03-08T16:51:38.492Z,12.47
2023-03-08T16:54:09.012Z,13.87
2023-03-08T16:56:44.965Z,10.40
2023-03-08T16:59:17.627Z,9.83
2023-03-08T17:01:48.154Z,10.90
2023-03-08T17:04:19.587Z,14.00
2023-03-08T17:06:51.920Z,14.43
2023-03-08T17:09:22.078Z,11.47
2023-03-08T17:11:54.837Z,13.13
2023-03-08T17:14:27.561Z,14.87
2023-03-08T17:17:00.194Z,15.27
2023-03-08T17:19:30.417Z,18.17
2023-03-08T17:22:00.694Z,13.07
2023-03-08T17:24:34.031Z,12.67
2023-03-08T17:27:07.198Z,11.07
2023-03-08T17:29:38.268Z,12.37
2023-03-08T17:32:09.594Z,11.90
2023-03-08T17:34:40.242Z,12.47
2023-03-08T17:37:12.134Z,11.33
2023-03-08T17:39:42.807Z,11.53
2023-03-08T17:42:15.580Z,11.17
2023-03-08T17:44:45.744Z,10.20
2023-03-08T17:47:16.362Z,11.53
2023-03-08T17:49:46.557Z,11.77
2023-03-08T17:52:16.647Z,11.83
2023-03-08T17:54:46.963Z,12.63
2023-03-08T17:57:20.562Z,10.50
2023-03-08T17:59:50.707Z,10.30
2023-03-08T18:02:22.186Z,10.30
2023-03-08T18:04:56.087Z,12.23
2023-03-08T18:07:29.155Z,16.07
2023-03-08T18:09:59.511Z,12.47
2023-03-08T18:12:32.514Z,13.57
2023-03-08T18:15:02.814Z,14.87
2023-03-08T18:17:34.075Z,16.40
2023-03-08T18:20:05.577Z,13.63
2023-03-08T18:22:35.684Z,11.33
2023-03-08T18:25:06.878Z,11.93
2023-03-08T18:27:39.626Z,11.00
2023-03-08T18:30:15.945Z,11.83
2023-03-08T18:32:46.342Z,14.13
2023-03-08T18:35:16.611Z,13.53
2023-03-08T18:37:46.766Z,14.73
2023-03-08T18:40:17.475Z,16.97
2023-03-08T18:42:50.285Z,13.80
2023-03-08T18:45:20.972Z,15.07
2023-03-08T18:47:53.761Z,13.23
2023-03-08T18:50:25.215Z,12.93
2023-03-08T18:52:58.171Z,19.50
2023-03-08T18:55:28.491Z,15.23
2023-03-08T18:58:01.135Z,15.53
2023-03-08T19:00:33.723Z,13.93
2023-03-08T19:03:03.906Z,15.40
2023-03-08T19:05:38.233Z,13.87
2023-03-08T19:08:11.026Z,16.83
2023-03-08T19:10:41.192Z,17.33
2023-03-08T19:13:13.898Z,16.13
2023-03-08T19:15:44.898Z,15.60
2023-03-08T19:18:14.997Z,16.03
2023-03-08T19:20:46.221Z,16.77
2023-03-08T19:23:16.283Z,17.43
2023-03-08T19:25:58.690Z,18.27
2023-03-08T19:28:31.377Z,18.03
2023-03-08T19:31:04.482Z,17.17
2023-03-08T19:33:34.591Z,16.03
2023-03-08T19:36:04.785Z,16.30
2023-03-08T19:38:36.914Z,16.33
2023-03-08T19:41:10.658Z,18.53
2023-03-08T19:43:43.726Z,18.77
2023-03-08T19:46:17.780Z,17.03
2023-03-08T19:48:50.605Z,15.77
2023-03-08T19:51:23.544Z,18.73
2023-03-08T19:53:53.734Z,22.70
2023-03-08T19:56:25.162Z,22.50
2023-03-08T19:58:59.419Z,18.97
2023-03-08T20:01:32.484Z,17.50
2023-03-08T20:04:02.848Z,18.57
2023-03-08T20:06:36.333Z,32.63
2023-03-08T20:09:09.086Z,27.33
2023-03-08T20:11:39.556Z,21.50
2023-03-08T20:14:12.325Z,20.60
2023-03-08T20:16:42.515Z,20.97
2023-03-08T20:19:12.681Z,24.77
2023-03-08T20:21:42.929Z,23.90
2023-03-08T20:24:13.997Z,20.93
2023-03-08T20:26:44.588Z,15.70
2023-03-08T20:29:17.490Z,15.63
2023-03-08T20:31:48.489Z,16.67
2023-03-08T20:34:19.566Z,15.07
2023-03-08T20:36:49.791Z,15.33
2023-03-08T20:39:23.728Z,14.20
2023-03-08T20:41:53.862Z,22.80
2023-03-08T20:44:26.547Z,17.20
2023-03-08T20:46:56.683Z,13.77
2023-03-08T20:49:28.299Z,13.93
2023-03-08T20:51:58.454Z,11.43
2023-03-08T20:54:28.588Z,11.47
2023-03-08T20:56:58.764Z,10.40
2023-03-08T20:59:31.689Z,10.80
2023-03-08T21:02:01.848Z,10.73
2023-03-08T21:04:33.401Z,20.67
2023-03-08T21:07:03.595Z,17.70
2023-03-08T21:09:33.769Z,18.00
2023-03-08T21:12:04.458Z,14.60
2023-03-08T21:14:39.774Z,12.37
2023-03-08T21:17:10.469Z,13.00
2023-03-08T21:19:40.563Z,16.63
2023-03-08T21:22:10.752Z,22.60
2023-03-08T21:24:40.871Z,12.00
2023-03-08T21:27:11.262Z,13.70
2023-03-08T21:29:44.026Z,13.67
2023-03-08T21:32:14.222Z,11.27
2023-03-08T21:34:46.925Z,10.63
2023-03-08T21:37:17.091Z,12.00
2023-03-08T21:39:48.487Z,13.40
2023-03-08T21:42:18.679Z,12.33
2023-03-08T21:44:56.619Z,15.03
2023-03-08T21:47:30.113Z,17.67
2023-03-08T21:50:00.456Z,13.83
2023-03-08T21:52:30.634Z,13.00
2023-03-08T21:55:00.713Z,15.77
2023-03-08T21:57:30.930Z,18.43
2023-03-08T22:00:03.818Z,16.03
2023-03-08T22:02:34.078Z,12.60
2023-03-08T22:05:07.059Z,13.93
2023-03-08T22:07:37.171Z,12.57
2023-03-08T22:10:08.592Z,13.17
2023-03-08T22:12:39.070Z,13.20
2023-03-08T22:15:16.046Z,11.60
2023-03-08T22:17:46.190Z,14.03
2023-03-08T22:20:17.031Z,13.43
2023-03-08T22:22:48.545Z,10.80
2023-03-08T22:25:18.888Z,12.17
2023-03-08T22:27:49.055Z,12.03
2023-03-08T22:30:26.234Z,12.00
2023-03-08T22:32:58.176Z,11.33
2023-03-08T22:35:28.283Z,11.23
2023-03-08T22:37:58.416Z,10.43
2023-03-08T22:40:31.333Z,10.83
2023-03-08T22:43:01.449Z,8.17
2023-03-08T22:45:34.938Z,10.60
2023-03-08T22:48:06.945Z,10.07
2023-03-08T22:50:37.194Z,9.87
2023-03-08T22:53:08.368Z,9.10
2023-03-08T22:55:38.628Z,8.20
2023-03-08T22:58:10.013Z,9.60
2023-03-08T23:00:42.765Z,8.60
2023-03-08T23:03:15.858Z,8.23
2023-03-08T23:05:46.000Z,8.97
2023-03-08T23:08:16.211Z,8.43
2023-03-08T23:10:46.292Z,8.53
2023-03-08T23:13:33.059Z,8.67
2023-03-08T23:16:10.287Z,8.50
2023-03-08T23:18:40.512Z,8.60
2023-03-08T23:21:14.259Z,8.50
2023-03-08T23:23:45.461Z,7.90
2023-03-08T23:26:19.002Z,9.13
2023-03-08T23:28:49.244Z,9.07
2023-03-08T23:31:25.571Z,9.47
2023-03-08T23:33:58.298Z,7.90
2023-03-08T23:36:30.971Z,7.47
2023-03-08T23:39:04.258Z,7.90
2023-03-08T23:41:35.746Z,7.30
2023-03-08T23:44:08.050Z,6.90
2023-03-08T23:46:41.322Z,7.70
2023-03-08T23:49:18.915Z,6.90
2023-03-08T23:51:51.298Z,7.33
2023-03-08T23:54:21.431Z,7.17
2023-03-08T23:56:51.583Z,7.10
2023-03-08T23:59:24.950Z,7.50
